LFMK/CCF METAR and TAF weather

Enter ICAO airport designator
Station Type Date Time Source
LFMK METAR 2021/01/20 23:00 UTC NOAA

LFMK 202300Z AUTO 12005KT 090V170 CAVOK 10/08 Q1005


Station Type Date Time Source
LFMK Decoded METAR 2021/01/20 23:00 UTC NOAA

Carcassonne, France (LFMK) 43-13N 002-19E 130M
Jan 20, 2021 - 06:00 PM EST / 2021.01.20 2300 UTC
Wind: from the ESE (120 degrees) at 6 MPH (5 KT) (direction variable):0
Visibility: greater than 7 mile(s):0
Temperature: 50 F (10 C)
Dew Point: 46 F (8 C)
Relative Humidity: 87%
Pressure (altimeter): 29.68 in. Hg (1005 hPa)
ob: LFMK 202300Z AUTO 12005KT 090V170 CAVOK 10/08 Q1005
cycle: 23

Station Type Date Time Source
LFMK TAF 2021/01/20 18:09 UTC NOAA

TAF TAF LFMK 201803Z 2018/2115 CNL

Example: see airport list